Terminal Aerodrome Forecast
Issued by NWS Jackson, KY

Home | Current Version | Previous Version | Text Only | Print | Product List | Glossary On
Versions: 1 2 3 4 5 6 7 8 9 10 11 12 13 14 15 16 17 18 19 20 21 22 23 24 25 26 27 28
000
FTUS43 KJKL 162338
TAFJKL
TAF
KJKL 162338Z 1700/1724 15003KT P6SM FEW040 BKN100
     FM170500 00000KT P6SM VCSH BKN035
     FM170900 00000KT P6SM VCSH OVC010
     FM171700 00000KT P6SM VCSH BKN025
     FM171900 29003KT P6SM SCT035 SCT090 SCT250=

USA.gov is the U.S. government's official web portal to all federal, state and local government web resources and services.